createdAt,value
2019-01-30T00:01:00.291Z,7.58
2019-01-30T00:03:29.424Z,8.73
2019-01-30T00:05:58.255Z,12.15
2019-01-30T00:08:27.082Z,9.40
2019-01-30T00:10:55.877Z,9.88
2019-01-30T00:13:24.784Z,11.55
2019-01-30T00:15:56.531Z,10.38
2019-01-30T00:18:24.190Z,12.03
2019-01-30T00:20:53.215Z,11.68
2019-01-30T00:23:22.267Z,8.80
2019-01-30T00:25:51.336Z,9.75
2019-01-30T00:28:20.163Z,12.90
2019-01-30T00:30:48.995Z,13.20
2019-01-30T00:33:18.086Z,13.68
2019-01-30T00:35:47.578Z,12.88
2019-01-30T00:38:16.625Z,14.80
2019-01-30T00:40:45.579Z,12.70
2019-01-30T00:43:14.428Z,13.28
2019-01-30T00:45:43.201Z,11.53
2019-01-30T00:48:12.388Z,14.20
2019-01-30T00:50:41.278Z,11.08
2019-01-30T00:53:10.348Z,13.28
2019-01-30T00:55:39.257Z,11.28
2019-01-30T00:58:08.406Z,8.33
2019-01-30T01:00:37.219Z,11.97
2019-01-30T01:03:06.244Z,15.68
2019-01-30T01:05:35.119Z,7.10
2019-01-30T01:08:04.044Z,7.50
2019-01-30T01:10:33.382Z,14.93
2019-01-30T01:13:02.528Z,16.50
2019-01-30T01:15:31.500Z,10.93
2019-01-30T01:18:00.335Z,10.50
2019-01-30T01:20:29.658Z,13.18
2019-01-30T01:22:58.731Z,15.63
2019-01-30T01:25:27.477Z,11.80
2019-01-30T01:27:56.253Z,12.20
2019-01-30T01:30:26.506Z,18.92
2019-01-30T01:32:55.629Z,11.28
2019-01-30T01:35:24.562Z,13.45
2019-01-30T01:37:53.719Z,16.87
2019-01-30T01:40:22.837Z,14.07
2019-01-30T01:42:52.008Z,13.35
2019-01-30T01:45:22.074Z,7.90
2019-01-30T01:47:51.385Z,7.00
2019-01-30T01:50:21.015Z,8.58
2019-01-30T01:52:50.160Z,8.40
2019-01-30T01:55:19.269Z,7.53
2019-01-30T01:57:48.695Z,16.73
2019-01-30T02:00:19.274Z,10.18
2019-01-30T02:02:48.321Z,15.25
2019-01-30T02:05:21.941Z,10.38
2019-01-30T02:07:51.119Z,9.50
2019-01-30T02:10:21.360Z,11.15
2019-01-30T02:12:50.384Z,8.10
2019-01-30T02:15:20.941Z,10.72
2019-01-30T02:17:50.150Z,5.80
2019-01-30T02:20:27.552Z,6.60
2019-01-30T02:22:56.688Z,4.95
2019-01-30T02:25:25.610Z,3.72
2019-01-30T02:27:54.875Z,8.55
2019-01-30T02:30:25.703Z,10.95
2019-01-30T02:32:54.929Z,7.30
2019-01-30T02:35:24.169Z,6.42
2019-01-30T02:37:53.057Z,3.17
2019-01-30T02:40:23.856Z,8.95
2019-01-30T02:42:52.903Z,7.83
2019-01-30T02:45:23.658Z,14.68
2019-01-30T02:47:52.875Z,3.27
2019-01-30T02:50:22.502Z,5.30
2019-01-30T02:52:51.744Z,8.70
2019-01-30T02:55:20.652Z,10.53
2019-01-30T02:57:49.498Z,6.30
2019-01-30T03:00:24.942Z,9.00
2019-01-30T03:02:53.905Z,5.25
2019-01-30T03:05:22.917Z,4.50
2019-01-30T03:07:51.761Z,10.18
2019-01-30T03:10:20.719Z,7.28
2019-01-30T03:12:49.960Z,6.28
2019-01-30T03:15:18.973Z,7.58
2019-01-30T03:17:47.913Z,10.35
2019-01-30T03:20:21.644Z,9.55
2019-01-30T03:22:50.538Z,7.70
2019-01-30T03:25:19.706Z,9.93
2019-01-30T03:27:48.758Z,11.00
2019-01-30T03:30:19.916Z,9.93
2019-01-30T03:32:49.007Z,6.55
2019-01-30T03:35:18.041Z,7.92
2019-01-30T03:37:46.934Z,7.42
2019-01-30T03:40:17.220Z,6.47
2019-01-30T03:42:46.339Z,9.20
2019-01-30T03:45:17.681Z,10.23
2019-01-30T03:47:46.575Z,9.65
2019-01-30T03:50:15.505Z,9.03
2019-01-30T03:52:44.818Z,7.85
2019-01-30T03:55:14.991Z,12.75
2019-01-30T03:57:44.038Z,10.93
2019-01-30T04:00:18.384Z,8.00
2019-01-30T04:02:47.548Z,10.65
2019-01-30T04:05:16.550Z,7.60
2019-01-30T04:07:45.774Z,8.80
2019-01-30T04:10:17.121Z,6.60
2019-01-30T04:12:46.033Z,8.70
2019-01-30T04:15:14.930Z,7.67
2019-01-30T04:17:43.923Z,7.33
2019-01-30T04:20:13.948Z,6.72
2019-01-30T04:22:43.092Z,11.48
2019-01-30T04:25:12.751Z,9.95
2019-01-30T04:27:41.816Z,12.95
2019-01-30T04:30:19.016Z,11.03
2019-01-30T04:32:48.078Z,9.20
2019-01-30T04:35:16.999Z,9.40
2019-01-30T04:37:46.234Z,7.50
2019-01-30T04:40:16.962Z,7.45
2019-01-30T04:42:46.183Z,10.55
2019-01-30T04:45:17.559Z,12.15
2019-01-30T04:47:46.642Z,14.47
2019-01-30T04:50:15.606Z,12.78
2019-01-30T04:52:44.674Z,10.00
2019-01-30T04:55:13.931Z,9.45
2019-01-30T04:57:42.700Z,14.93
2019-01-30T05:00:13.417Z,10.32
2019-01-30T05:02:42.454Z,7.50
2019-01-30T05:05:11.831Z,10.20
2019-01-30T05:07:40.911Z,8.23
2019-01-30T05:10:10.877Z,9.50
2019-01-30T05:12:39.909Z,12.45
2019-01-30T05:15:12.096Z,9.33
2019-01-30T05:17:41.187Z,10.72
2019-01-30T05:20:11.181Z,12.47
2019-01-30T05:22:40.394Z,13.83
2019-01-30T05:25:10.009Z,9.88
2019-01-30T05:27:39.203Z,11.68
2019-01-30T05:30:12.574Z,10.23
2019-01-30T05:32:42.006Z,9.73
2019-01-30T05:35:11.170Z,11.22
2019-01-30T05:37:40.190Z,11.38
2019-01-30T05:40:11.621Z,13.10
2019-01-30T05:42:40.542Z,10.68
2019-01-30T05:45:11.571Z,12.25
2019-01-30T05:47:40.570Z,12.05
2019-01-30T05:50:09.814Z,9.40
2019-01-30T05:52:39.097Z,13.25
2019-01-30T05:55:08.682Z,9.75
2019-01-30T05:57:37.550Z,8.83
2019-01-30T06:00:10.156Z,10.65
2019-01-30T06:02:38.918Z,12.35
2019-01-30T06:05:07.812Z,11.15
2019-01-30T06:07:36.791Z,13.72
2019-01-30T06:10:06.611Z,12.68
2019-01-30T06:12:35.928Z,8.95
2019-01-30T06:15:05.737Z,13.80
2019-01-30T06:17:34.556Z,14.28
2019-01-30T06:20:06.123Z,12.40
2019-01-30T06:22:35.176Z,15.48
2019-01-30T06:25:04.631Z,12.60
2019-01-30T06:27:33.763Z,9.63
2019-01-30T06:30:02.513Z,14.33
2019-01-30T06:32:31.562Z,10.90
2019-01-30T06:35:00.531Z,10.13
2019-01-30T06:37:29.500Z,10.53
2019-01-30T06:39:58.342Z,12.07
2019-01-30T06:42:27.512Z,9.03
2019-01-30T06:44:56.283Z,10.58
2019-01-30T06:47:25.450Z,11.38
2019-01-30T06:49:54.467Z,14.90
2019-01-30T06:52:23.559Z,12.78
2019-01-30T06:54:52.391Z,14.95
2019-01-30T06:57:21.498Z,18.82
2019-01-30T06:59:50.368Z,23.57
2019-01-30T07:02:19.162Z,10.30
2019-01-30T07:04:48.718Z,16.25
2019-01-30T07:07:17.914Z,16.25
2019-01-30T07:09:47.091Z,14.35
2019-01-30T07:12:16.422Z,11.25
2019-01-30T07:14:45.283Z,20.72
2019-01-30T07:17:14.174Z,15.90
2019-01-30T07:19:43.271Z,15.20
2019-01-30T07:22:12.567Z,11.78
2019-01-30T07:24:41.863Z,13.28
2019-01-30T07:27:10.942Z,16.57
2019-01-30T07:29:39.972Z,11.93
2019-01-30T07:32:09.098Z,12.15
2019-01-30T07:34:38.160Z,8.85
2019-01-30T07:37:07.491Z,15.85
2019-01-30T07:39:36.533Z,13.53
2019-01-30T07:42:05.477Z,17.10
2019-01-30T07:44:34.370Z,15.58
2019-01-30T07:47:03.254Z,15.40
2019-01-30T07:49:32.415Z,22.32
2019-01-30T07:52:01.258Z,15.32
2019-01-30T07:54:30.345Z,18.75
2019-01-30T07:56:59.291Z,17.30
2019-01-30T07:59:28.269Z,18.10
2019-01-30T08:01:57.357Z,20.08
2019-01-30T08:04:26.175Z,14.05
2019-01-30T08:06:55.334Z,20.27
2019-01-30T08:09:24.154Z,16.62
2019-01-30T08:11:53.091Z,21.23
2019-01-30T08:14:22.226Z,15.68
2019-01-30T08:16:51.157Z,18.90
2019-01-30T08:19:20.136Z,16.27
2019-01-30T08:21:49.011Z,21.80
2019-01-30T08:24:18.393Z,23.45
2019-01-30T08:26:47.828Z,21.52
2019-01-30T08:29:16.801Z,24.60
2019-01-30T08:31:45.882Z,23.92
2019-01-30T08:34:15.166Z,33.13
2019-01-30T08:36:44.018Z,16.67
2019-01-30T08:39:12.909Z,16.50
2019-01-30T08:41:41.994Z,24.77
2019-01-30T08:44:10.836Z,21.33
2019-01-30T08:46:39.601Z,22.67
2019-01-30T08:49:08.476Z,22.10
2019-01-30T08:51:37.266Z,19.17
2019-01-30T08:54:06.178Z,19.77
2019-01-30T08:56:39.012Z,21.42
2019-01-30T08:59:06.042Z,35.03
2019-01-30T09:01:35.079Z,23.80
2019-01-30T09:04:04.235Z,18.45
2019-01-30T09:06:33.122Z,18.48
2019-01-30T09:09:02.298Z,23.18
2019-01-30T09:11:31.172Z,18.50
2019-01-30T09:14:00.523Z,24.92
2019-01-30T09:16:29.670Z,22.80
2019-01-30T09:19:00.342Z,22.70
2019-01-30T09:21:29.443Z,18.32
2019-01-30T09:23:58.214Z,20.35
2019-01-30T09:26:27.391Z,21.35
2019-01-30T09:28:56.267Z,21.45
2019-01-30T09:31:25.274Z,21.77
2019-01-30T09:33:54.378Z,21.30
2019-01-30T09:36:25.092Z,22.52
2019-01-30T09:38:53.982Z,16.57
2019-01-30T09:41:22.823Z,24.20
2019-01-30T09:43:51.810Z,16.67
2019-01-30T09:46:20.679Z,24.07
2019-01-30T09:48:49.869Z,20.95
2019-01-30T09:51:18.927Z,26.50
2019-01-30T09:53:47.993Z,24.60
2019-01-30T09:56:16.815Z,17.15
2019-01-30T09:58:45.842Z,31.00
2019-01-30T10:01:14.838Z,29.48
2019-01-30T10:03:43.646Z,19.87
2019-01-30T10:06:12.826Z,13.78
2019-01-30T10:08:41.843Z,19.77
2019-01-30T10:11:10.625Z,20.85
2019-01-30T10:13:39.665Z,19.10
2019-01-30T10:16:08.696Z,16.55
2019-01-30T10:18:37.459Z,22.20
2019-01-30T10:21:06.422Z,22.10
2019-01-30T10:23:35.270Z,22.55
2019-01-30T10:26:04.331Z,18.52
2019-01-30T10:28:33.735Z,15.85
2019-01-30T10:31:02.477Z,18.15
2019-01-30T10:33:31.303Z,34.05
2019-01-30T10:36:00.134Z,15.90
2019-01-30T10:38:29.392Z,19.17
2019-01-30T10:40:58.144Z,23.92
2019-01-30T10:43:27.291Z,13.62
2019-01-30T10:45:56.194Z,13.38
2019-01-30T10:48:25.292Z,11.20
2019-01-30T10:50:54.254Z,11.57
2019-01-30T10:53:23.022Z,18.77
2019-01-30T10:55:52.086Z,16.40
2019-01-30T10:58:21.359Z,11.45
2019-01-30T11:00:51.625Z,11.12
2019-01-30T11:03:20.779Z,13.18
2019-01-30T11:05:49.675Z,14.35
2019-01-30T11:08:18.871Z,14.53
2019-01-30T11:10:47.790Z,16.42
2019-01-30T11:13:16.930Z,13.13
2019-01-30T11:15:45.881Z,10.20
2019-01-30T11:18:15.940Z,13.35
2019-01-30T11:20:44.895Z,11.53
2019-01-30T11:23:13.891Z,12.35
2019-01-30T11:25:44.652Z,10.45
2019-01-30T11:28:13.618Z,15.05
2019-01-30T11:30:42.397Z,15.78
2019-01-30T11:33:11.417Z,12.33
2019-01-30T11:35:40.253Z,12.85
2019-01-30T11:38:09.640Z,10.35
2019-01-30T11:40:39.091Z,15.25
2019-01-30T11:43:08.165Z,11.05
2019-01-30T11:45:41.850Z,7.62
2019-01-30T11:48:10.852Z,12.07
2019-01-30T11:50:41.041Z,13.62
2019-01-30T11:53:10.133Z,7.47
2019-01-30T11:55:39.179Z,11.85
2019-01-30T11:58:08.422Z,14.10
2019-01-30T12:00:41.921Z,11.10
2019-01-30T12:03:10.756Z,11.40
2019-01-30T12:05:39.914Z,11.90
2019-01-30T12:08:08.703Z,14.65
2019-01-30T12:10:37.602Z,11.50
2019-01-30T12:13:06.694Z,11.65
2019-01-30T12:15:35.582Z,9.63
2019-01-30T12:18:05.594Z,11.57
2019-01-30T12:20:34.744Z,14.98
2019-01-30T12:23:03.841Z,14.55
2019-01-30T12:25:32.921Z,11.57
2019-01-30T12:28:01.851Z,10.23
2019-01-30T12:30:30.849Z,9.33
2019-01-30T12:32:59.989Z,12.20
2019-01-30T12:35:28.866Z,12.43
2019-01-30T12:37:57.910Z,11.78
2019-01-30T12:40:27.191Z,10.58
2019-01-30T12:42:56.478Z,10.90
2019-01-30T12:45:28.058Z,8.75
2019-01-30T12:47:57.278Z,7.80
2019-01-30T12:50:26.398Z,9.60
2019-01-30T12:52:55.490Z,17.75
2019-01-30T12:55:24.569Z,27.40
2019-01-30T12:57:53.456Z,14.35
2019-01-30T13:00:24.263Z,12.15
2019-01-30T13:02:53.159Z,12.45
2019-01-30T13:05:24.555Z,7.53
2019-01-30T13:07:53.598Z,8.60
2019-01-30T13:10:22.973Z,11.15
2019-01-30T13:12:51.803Z,12.90
2019-01-30T13:15:21.835Z,10.48
2019-01-30T13:17:51.034Z,13.40
2019-01-30T13:20:21.062Z,13.88
2019-01-30T13:22:49.968Z,8.28
2019-01-30T13:25:23.893Z,9.75
2019-01-30T13:27:53.018Z,10.45
2019-01-30T13:30:24.378Z,10.03
2019-01-30T13:32:53.527Z,9.58
2019-01-30T13:35:22.806Z,8.30
2019-01-30T13:37:52.382Z,7.03
2019-01-30T13:40:32.445Z,8.33
2019-01-30T13:43:01.445Z,4.12
2019-01-30T13:45:31.135Z,3.15
2019-01-30T13:48:00.394Z,3.80
2019-01-30T13:50:29.258Z,3.70
2019-01-30T13:52:58.407Z,1.82
2019-01-30T13:55:27.569Z,1.10
2019-01-30T13:57:56.697Z,1.85
2019-01-30T14:00:28.157Z,0.90
2019-01-30T14:02:57.493Z,1.00
2019-01-30T14:05:26.427Z,3.45
2019-01-30T14:07:55.621Z,1.27
2019-01-30T14:10:27.009Z,3.45
2019-01-30T14:12:55.070Z,1.15
2019-01-30T14:15:25.246Z,1.27
2019-01-30T14:17:54.242Z,0.70
2019-01-30T14:20:23.170Z,1.10
2019-01-30T14:22:52.117Z,0.90
2019-01-30T14:25:21.017Z,1.20
2019-01-30T14:27:49.867Z,1.12
2019-01-30T14:30:38.898Z,2.85
2019-01-30T14:33:07.919Z,1.55
2019-01-30T14:35:41.771Z,2.12
2019-01-30T14:38:10.985Z,2.42
2019-01-30T14:40:39.921Z,1.20
2019-01-30T14:43:09.091Z,1.60
2019-01-30T14:45:38.202Z,2.45
2019-01-30T14:48:07.100Z,1.70
2019-01-30T14:50:35.947Z,1.25
2019-01-30T14:53:04.812Z,2.40
2019-01-30T14:55:33.939Z,1.02
2019-01-30T14:58:03.209Z,2.08
2019-01-30T15:00:32.656Z,2.20
2019-01-30T15:03:01.840Z,0.70
2019-01-30T15:05:31.288Z,1.37
2019-01-30T15:08:00.230Z,1.40
2019-01-30T15:10:29.984Z,3.45
2019-01-30T15:12:59.095Z,2.00
2019-01-30T15:15:29.709Z,2.17
2019-01-30T15:17:58.872Z,1.45
2019-01-30T15:20:29.650Z,1.45
2019-01-30T15:22:58.937Z,1.70
2019-01-30T15:25:28.080Z,1.50
2019-01-30T15:27:57.843Z,2.37
2019-01-30T15:30:32.251Z,2.20
2019-01-30T15:33:01.506Z,4.03
2019-01-30T15:35:33.799Z,2.67
2019-01-30T15:38:02.263Z,4.25
2019-01-30T15:40:31.604Z,1.92
2019-01-30T15:43:00.366Z,2.77
2019-01-30T15:45:29.251Z,4.15
2019-01-30T15:47:58.330Z,3.10
2019-01-30T15:50:28.895Z,2.02
2019-01-30T15:52:58.982Z,2.77
2019-01-30T15:55:27.921Z,3.27
2019-01-30T15:58:02.238Z,5.05
2019-01-30T16:00:40.339Z,4.80
2019-01-30T16:03:09.190Z,3.45
2019-01-30T16:05:44.999Z,4.00
2019-01-30T16:08:09.428Z,5.87
2019-01-30T16:10:38.991Z,4.00
2019-01-30T16:13:07.842Z,5.58
2019-01-30T16:15:43.150Z,6.35
2019-01-30T16:18:12.400Z,5.03
2019-01-30T16:20:41.501Z,5.78
2019-01-30T16:23:10.460Z,2.30
2019-01-30T16:25:39.537Z,3.70
2019-01-30T16:28:08.487Z,4.37
2019-01-30T16:30:37.341Z,7.83
2019-01-30T16:33:06.855Z,4.47
2019-01-30T16:35:36.238Z,5.45
2019-01-30T16:38:06.210Z,4.53
2019-01-30T16:40:35.370Z,5.05
2019-01-30T16:43:04.488Z,9.08
2019-01-30T16:45:33.393Z,5.80
2019-01-30T16:48:02.567Z,9.28
2019-01-30T16:50:34.314Z,5.33
2019-01-30T16:53:02.349Z,5.33
2019-01-30T16:55:31.263Z,6.72
2019-01-30T16:58:00.215Z,6.47
2019-01-30T17:00:31.471Z,7.83
2019-01-30T17:03:00.707Z,8.60
2019-01-30T17:05:30.222Z,4.53
2019-01-30T17:07:59.339Z,3.98
2019-01-30T17:10:28.193Z,5.55
2019-01-30T17:12:57.111Z,2.95
2019-01-30T17:15:28.217Z,5.30
2019-01-30T17:17:57.026Z,4.70
2019-01-30T17:20:30.798Z,6.28
2019-01-30T17:22:59.854Z,2.92
2019-01-30T17:25:29.094Z,7.12
2019-01-30T17:27:57.918Z,3.05
2019-01-30T17:30:38.983Z,4.55
2019-01-30T17:33:07.917Z,5.53
2019-01-30T17:35:37.294Z,6.33
2019-01-30T17:38:06.438Z,5.37
2019-01-30T17:40:35.380Z,6.85
2019-01-30T17:43:04.281Z,5.62
2019-01-30T17:45:33.554Z,5.90
2019-01-30T17:48:02.772Z,6.35
2019-01-30T17:50:31.846Z,6.80
2019-01-30T17:53:00.610Z,6.45
2019-01-30T17:55:29.514Z,3.17
2019-01-30T17:57:58.647Z,3.65
2019-01-30T18:00:33.357Z,3.15
2019-01-30T18:03:02.546Z,5.05
2019-01-30T18:05:31.626Z,6.00
2019-01-30T18:08:00.875Z,6.85
2019-01-30T18:10:29.675Z,5.40
2019-01-30T18:12:58.662Z,4.47
2019-01-30T18:15:27.700Z,4.15
2019-01-30T18:17:56.564Z,3.40
2019-01-30T18:20:25.778Z,5.22
2019-01-30T18:22:54.772Z,8.73
2019-01-30T18:25:23.655Z,7.25
2019-01-30T18:27:52.498Z,4.37
2019-01-30T18:30:21.314Z,8.65
2019-01-30T18:32:51.207Z,3.92
2019-01-30T18:35:20.275Z,5.03
2019-01-30T18:37:49.092Z,4.58
2019-01-30T18:40:19.423Z,5.20
2019-01-30T18:42:48.923Z,7.00
2019-01-30T18:45:20.378Z,7.17
2019-01-30T18:47:49.552Z,4.83
2019-01-30T18:50:20.675Z,7.05
2019-01-30T18:52:49.599Z,5.35
2019-01-30T18:55:19.082Z,5.30
2019-01-30T18:57:48.390Z,7.00
2019-01-30T19:00:26.162Z,7.42
2019-01-30T19:02:55.994Z,6.75
2019-01-30T19:05:24.939Z,9.68
2019-01-30T19:07:53.811Z,7.42
2019-01-30T19:10:22.798Z,7.85
2019-01-30T19:12:51.899Z,6.40
2019-01-30T19:15:21.988Z,6.78
2019-01-30T19:17:50.972Z,7.33
2019-01-30T19:20:22.122Z,8.38
2019-01-30T19:22:50.959Z,5.97
2019-01-30T19:25:20.078Z,6.15
2019-01-30T19:27:49.096Z,9.35
2019-01-30T19:30:23.259Z,8.00
2019-01-30T19:32:52.507Z,8.93
2019-01-30T19:35:21.414Z,6.55
2019-01-30T19:37:50.442Z,6.00
2019-01-30T19:40:19.540Z,4.25
2019-01-30T19:42:48.495Z,6.90
2019-01-30T19:45:18.423Z,6.53
2019-01-30T19:47:47.310Z,9.18
2019-01-30T19:50:18.468Z,8.13
2019-01-30T19:52:47.376Z,5.75
2019-01-30T19:55:16.211Z,6.78
2019-01-30T19:57:44.965Z,10.03
2019-01-30T20:00:22.595Z,10.82
2019-01-30T20:02:51.762Z,10.72
2019-01-30T20:05:20.947Z,7.58
2019-01-30T20:07:49.854Z,8.70
2019-01-30T20:10:20.998Z,8.83
2019-01-30T20:12:49.997Z,11.05
2019-01-30T20:15:18.839Z,7.78
2019-01-30T20:17:47.785Z,10.70
2019-01-30T20:20:17.232Z,3.62
2019-01-30T20:22:46.129Z,6.00
2019-01-30T20:25:17.867Z,7.95
2019-01-30T20:27:46.626Z,3.67
2019-01-30T20:30:17.907Z,5.37
2019-01-30T20:32:47.059Z,4.92
2019-01-30T20:35:16.006Z,3.10
2019-01-30T20:37:44.805Z,7.33
2019-01-30T20:40:19.006Z,3.08
2019-01-30T20:42:48.382Z,3.77
2019-01-30T20:45:17.538Z,7.33
2019-01-30T20:47:46.691Z,3.80
2019-01-30T20:50:20.812Z,4.25
2019-01-30T20:52:49.894Z,4.67
2019-01-30T20:55:19.134Z,3.72
2019-01-30T20:57:48.261Z,3.90
2019-01-30T21:00:19.623Z,2.47
2019-01-30T21:02:48.370Z,2.02
2019-01-30T21:05:17.307Z,2.85
2019-01-30T21:07:46.244Z,4.37
2019-01-30T21:10:20.610Z,2.30
2019-01-30T21:12:49.524Z,5.55
2019-01-30T21:15:18.568Z,4.72
2019-01-30T21:17:47.710Z,3.83
2019-01-30T21:20:16.667Z,2.47
2019-01-30T21:22:45.575Z,3.35
2019-01-30T21:25:16.482Z,5.15
2019-01-30T21:27:45.620Z,5.22
2019-01-30T21:30:17.173Z,4.22
2019-01-30T21:32:46.230Z,2.98
2019-01-30T21:35:15.404Z,2.33
2019-01-30T21:37:48.915Z,1.70
2019-01-30T21:40:16.028Z,5.50
2019-01-30T21:42:44.954Z,3.08
2019-01-30T21:45:18.774Z,2.90
2019-01-30T21:47:48.170Z,6.53
2019-01-30T21:50:17.189Z,4.28
2019-01-30T21:52:46.271Z,2.33
2019-01-30T21:55:17.407Z,3.70
2019-01-30T21:57:46.309Z,4.40
2019-01-30T22:00:20.918Z,20.40
2019-01-30T22:02:49.838Z,8.30
2019-01-30T22:05:19.220Z,3.33
2019-01-30T22:07:48.188Z,2.58
2019-01-30T22:10:19.407Z,4.53
2019-01-30T22:12:48.320Z,8.95
2019-01-30T22:15:17.483Z,3.52
2019-01-30T22:17:46.567Z,3.47
2019-01-30T22:20:17.375Z,4.20
2019-01-30T22:22:46.378Z,7.20
2019-01-30T22:25:20.471Z,8.18
2019-01-30T22:27:47.342Z,2.65
2019-01-30T22:30:35.713Z,4.58
2019-01-30T22:33:04.907Z,7.17
2019-01-30T22:35:33.725Z,3.20
2019-01-30T22:38:12.087Z,13.58
2019-01-30T22:40:33.571Z,3.85
2019-01-30T22:43:02.579Z,4.28
2019-01-30T22:45:31.318Z,1.90
2019-01-30T22:48:00.195Z,4.58
2019-01-30T22:50:29.150Z,6.25
2019-01-30T22:52:58.001Z,6.12
2019-01-30T22:55:26.823Z,11.65
2019-01-30T22:57:55.799Z,6.08
2019-01-30T23:00:57.794Z,4.67
2019-01-30T23:03:32.122Z,8.23
2019-01-30T23:06:27.580Z,2.85
2019-01-30T23:09:21.783Z,3.50
2019-01-30T23:12:06.026Z,2.95
2019-01-30T23:14:44.235Z,5.30
2019-01-30T23:17:43.542Z,5.62
2019-01-30T23:20:43.278Z,6.03
2019-01-30T23:23:44.919Z,3.15
2019-01-30T23:26:20.823Z,2.00
2019-01-30T23:29:51.774Z,2.33
2019-01-30T23:32:37.379Z,3.37
2019-01-30T23:35:36.269Z,3.58
2019-01-30T23:38:34.288Z,3.70
2019-01-30T23:41:19.042Z,6.20
2019-01-30T23:44:25.389Z,3.87
2019-01-30T23:47:05.374Z,4.03
2019-01-30T23:49:58.219Z,13.90
2019-01-30T23:52:37.595Z,5.83
2019-01-30T23:55:41.274Z,14.03
2019-01-30T23:58:48.887Z,2.98
